Alamo, California
Current Conditions -  °F | °C
As of 2:53 PM on Friday 28 Nov 2014 (Local Time) from KCCR Reporting Station
Clear Clear  
Wind Chill: 19°   Ceiling: Unl
Heat Index: 19°   Visibility: 10mi
Dew Point: 10°   Wind: 13mph
Humidity: 54%   Direction: 300°WNW
Pressure: 29.9"   Gusts: NA
Location:  37.85°N, 122.03°W
Report Text: KCCR 282253Z 30011KT 10SM CLR 19/10 A2990 RMK AO2 SLP112 T01940100
Loading
Personal Weather Stations






























Interactive Weather Map New forecast layout! Learn more

10-Day Weather Forecast

Advertisements
Track Severe Weather on mobile